createdAt,value
2018-05-21T00:00:56.643Z,98070.58
2018-05-21T00:03:24.267Z,98066.36
2018-05-21T00:05:51.863Z,98069.67
2018-05-21T00:08:19.488Z,98067.75
2018-05-21T00:10:47.092Z,98061.75
2018-05-21T00:13:14.746Z,98057.84
2018-05-21T00:15:42.369Z,98055.85
2018-05-21T00:18:09.977Z,98051.48
2018-05-21T00:20:37.613Z,98052.34
2018-05-21T00:23:05.203Z,98055.56
2018-05-21T00:25:32.929Z,98051.34
2018-05-21T00:28:00.524Z,98046.48
2018-05-21T00:30:28.330Z,98053.80
2018-05-21T00:32:55.930Z,98051.59
2018-05-21T00:35:23.515Z,98047.19
2018-05-21T00:37:51.149Z,98047.26
2018-05-21T00:40:18.742Z,98042.55
2018-05-21T00:42:46.486Z,98039.73
2018-05-21T00:45:14.103Z,98041.23
2018-05-21T00:47:41.884Z,98042.55
2018-05-21T00:50:09.483Z,98036.05
2018-05-21T00:52:37.161Z,98039.22
2018-05-21T00:55:16.421Z,98040.63
2018-05-21T00:57:44.119Z,98033.33
2018-05-21T01:00:11.742Z,98043.20
2018-05-21T01:02:39.342Z,98033.70
2018-05-21T01:05:06.993Z,98035.33
2018-05-21T01:07:34.597Z,98031.41
2018-05-21T01:10:02.451Z,98029.40
2018-05-21T01:12:30.122Z,98028.98
2018-05-21T01:14:57.746Z,98029.05
2018-05-21T01:17:25.396Z,98026.16
2018-05-21T01:19:53.709Z,98029.39
2018-05-21T01:22:21.368Z,98030.62
2018-05-21T01:24:48.992Z,98028.13
2018-05-21T01:27:16.589Z,98029.66
2018-05-21T01:29:44.212Z,98029.00
2018-05-21T01:32:11.881Z,98028.04
2018-05-21T01:34:39.823Z,98029.68
2018-05-21T01:37:07.440Z,98027.28
2018-05-21T01:39:35.386Z,98023.81
2018-05-21T01:42:02.986Z,98023.89
2018-05-21T01:44:30.592Z,98026.16
2018-05-21T01:46:58.218Z,98024.89
2018-05-21T01:49:25.930Z,98028.57
2018-05-21T01:51:53.557Z,98025.06
2018-05-21T01:54:21.145Z,98021.80
2018-05-21T01:56:48.800Z,98019.97
2018-05-21T01:59:16.403Z,98018.14
2018-05-21T02:01:43.993Z,98017.25
2018-05-21T02:04:11.623Z,98021.56
2018-05-21T02:06:39.345Z,98020.44
2018-05-21T02:09:07.028Z,98016.23
2018-05-21T02:11:35.073Z,98020.30
2018-05-21T02:14:02.717Z,98018.81
2018-05-21T02:16:30.332Z,98019.98
2018-05-21T02:18:57.980Z,98011.63
2018-05-21T02:21:25.615Z,98011.30
2018-05-21T02:23:53.222Z,98006.76
2018-05-21T02:26:20.877Z,98003.84
2018-05-21T02:28:48.480Z,98010.30
2018-05-21T02:31:16.344Z,98011.44
2018-05-21T02:33:43.950Z,98004.34
2018-05-21T02:36:11.570Z,98002.09
2018-05-21T02:38:39.687Z,98002.98
2018-05-21T02:41:07.289Z,98002.09
2018-05-21T02:43:34.931Z,97999.64
2018-05-21T02:46:02.553Z,97996.78
2018-05-21T02:48:30.945Z,98000.46
2018-05-21T02:50:58.592Z,97996.88
2018-05-21T02:53:26.283Z,98002.35
2018-05-21T02:55:53.937Z,97994.17
2018-05-21T02:58:21.590Z,97994.94
2018-05-21T03:00:49.802Z,97995.73
2018-05-21T03:03:17.439Z,97996.42
2018-05-21T03:05:45.320Z,97991.33
2018-05-21T03:08:12.944Z,97991.00
2018-05-21T03:10:40.562Z,97992.68
2018-05-21T03:13:08.191Z,97990.99
2018-05-21T03:15:35.799Z,97991.66
2018-05-21T03:18:03.449Z,97998.44
2018-05-21T03:20:31.060Z,97998.54
2018-05-21T03:22:58.694Z,97994.87
2018-05-21T03:25:26.308Z,97989.44
2018-05-21T03:27:53.904Z,97995.03
2018-05-21T03:30:21.535Z,97997.02
2018-05-21T03:32:49.222Z,97994.30
2018-05-21T03:35:16.853Z,97995.99
2018-05-21T03:37:44.451Z,97990.48
2018-05-21T03:40:12.388Z,97995.85
2018-05-21T03:42:39.975Z,97987.14
2018-05-21T03:45:07.603Z,97985.88
2018-05-21T03:47:35.226Z,97983.73
2018-05-21T03:50:02.834Z,97981.73
2018-05-21T03:52:30.463Z,97980.69
2018-05-21T03:54:58.063Z,97976.45
2018-05-21T03:57:25.821Z,97979.59
2018-05-21T04:00:05.115Z,97984.38
2018-05-21T04:02:44.496Z,97981.11
2018-05-21T04:05:12.098Z,97979.75
2018-05-21T04:07:39.809Z,97976.15
2018-05-21T04:10:09.118Z,97983.07
2018-05-21T04:12:36.723Z,97981.62
2018-05-21T04:15:04.332Z,97983.47
2018-05-21T04:17:32.071Z,97981.55
2018-05-21T04:19:59.966Z,97982.91
2018-05-21T04:22:27.559Z,97986.91
2018-05-21T04:24:55.155Z,97989.23
2018-05-21T04:27:23.055Z,97985.86
2018-05-21T04:29:50.665Z,97986.91
2018-05-21T04:32:18.618Z,97983.20
2018-05-21T04:34:46.232Z,97985.09
2018-05-21T04:37:13.834Z,97981.48
2018-05-21T04:39:41.476Z,97979.90
2018-05-21T04:42:09.673Z,97979.00
2018-05-21T04:44:37.286Z,97981.95
2018-05-21T04:47:04.891Z,97982.08
2018-05-21T04:49:32.745Z,97989.00
2018-05-21T04:52:00.339Z,97983.29
2018-05-21T04:54:27.945Z,97982.41
2018-05-21T04:56:55.592Z,97985.16
2018-05-21T04:59:23.227Z,97979.02
2018-05-21T05:01:50.843Z,97982.48
2018-05-21T05:04:18.431Z,97981.58
2018-05-21T05:06:46.447Z,97975.36
2018-05-21T05:09:14.047Z,97977.88
2018-05-21T05:11:41.654Z,97977.44
2018-05-21T05:14:09.306Z,97969.27
2018-05-21T05:16:36.946Z,97973.45
2018-05-21T05:19:04.595Z,97971.73
2018-05-21T05:21:32.197Z,97971.17
2018-05-21T05:24:00.267Z,97962.76
2018-05-21T05:26:28.138Z,97962.12
2018-05-21T05:28:55.764Z,97963.40
2018-05-21T05:31:23.604Z,97966.69
2018-05-21T05:33:51.212Z,97962.41
2018-05-21T05:36:18.887Z,97964.88
2018-05-21T05:38:46.486Z,97963.17
2018-05-21T05:41:14.367Z,97955.52
2018-05-21T05:43:41.963Z,97962.95
2018-05-21T05:46:09.581Z,97953.09
2018-05-21T05:48:37.212Z,97958.30
2018-05-21T05:51:04.805Z,97959.00
2018-05-21T05:53:32.462Z,97957.64
2018-05-21T05:56:00.082Z,97955.23
2018-05-21T05:58:27.707Z,97957.16
2018-05-21T06:00:55.302Z,97963.78
2018-05-21T06:03:22.900Z,97957.68
2018-05-21T06:05:50.515Z,97958.42
2018-05-21T06:08:18.120Z,97958.03
2018-05-21T06:10:56.291Z,97954.28
2018-05-21T06:13:23.999Z,97954.06
2018-05-21T06:15:51.956Z,97946.77
2018-05-21T06:18:19.570Z,97954.15
2018-05-21T06:20:47.162Z,97950.45
2018-05-21T06:23:14.788Z,97948.05
2018-05-21T06:25:42.385Z,97947.99
2018-05-21T06:28:10.031Z,97942.09
2018-05-21T06:30:37.626Z,97944.20
2018-05-21T06:33:05.371Z,97942.84
2018-05-21T06:35:32.968Z,97938.52
2018-05-21T06:38:00.559Z,97940.58
2018-05-21T06:40:28.190Z,97943.37
2018-05-21T06:42:55.787Z,97938.02
2018-05-21T06:45:23.405Z,97941.52
2018-05-21T06:47:51.121Z,97943.81
2018-05-21T06:50:18.874Z,97940.00
2018-05-21T06:52:46.467Z,97937.23
2018-05-21T06:55:14.067Z,97934.09
2018-05-21T06:57:41.717Z,97933.73
2018-05-21T07:00:09.381Z,97938.96
2018-05-21T07:02:36.997Z,97931.45
2018-05-21T07:05:04.595Z,97933.82
2018-05-21T07:07:32.459Z,97936.48
2018-05-21T07:10:00.060Z,97931.08
2018-05-21T07:12:27.659Z,97921.50
2018-05-21T07:14:55.283Z,97924.98
2018-05-21T07:17:22.877Z,97915.65
2018-05-21T07:19:50.513Z,97919.20
2018-05-21T07:22:18.129Z,97916.42
2018-05-21T07:24:45.854Z,97916.77
2018-05-21T07:27:13.444Z,97920.05
2018-05-21T07:29:41.030Z,97920.48
2018-05-21T07:32:08.667Z,97916.28
2018-05-21T07:34:36.344Z,97914.64
2018-05-21T07:37:03.955Z,97912.51
2018-05-21T07:39:31.560Z,97901.70
2018-05-21T07:41:59.334Z,97910.89
2018-05-21T07:44:26.984Z,97896.47
2018-05-21T07:46:54.586Z,97905.56
2018-05-21T07:49:22.262Z,97897.69
2018-05-21T07:51:49.913Z,97897.37
2018-05-21T07:54:17.766Z,97901.64
2018-05-21T07:56:45.425Z,97894.37
2018-05-21T07:59:13.023Z,97885.54
2018-05-21T08:01:40.849Z,97898.84
2018-05-21T08:04:08.446Z,97889.52
2018-05-21T08:06:36.107Z,97886.12
2018-05-21T08:09:03.746Z,97881.80
2018-05-21T08:11:31.342Z,97874.94
2018-05-21T08:13:58.967Z,97877.06
2018-05-21T08:16:26.562Z,97874.27
2018-05-21T08:18:54.182Z,97873.11
2018-05-21T08:21:21.778Z,97870.55
2018-05-21T08:23:49.746Z,97871.97
2018-05-21T08:26:17.343Z,97865.30
2018-05-21T08:28:44.944Z,97867.17
2018-05-21T08:31:12.554Z,97858.55
2018-05-21T08:33:40.196Z,97851.02
2018-05-21T08:36:07.816Z,97854.43
2018-05-21T08:38:35.440Z,97852.13
2018-05-21T08:41:03.115Z,97850.98
2018-05-21T08:43:31.503Z,97854.18
2018-05-21T08:45:59.305Z,97852.48
2018-05-21T08:48:26.979Z,97854.99
2018-05-21T08:50:54.561Z,97852.06
2018-05-21T08:53:22.170Z,97849.31
2018-05-21T08:55:49.812Z,97847.73
2018-05-21T08:58:17.404Z,97845.30
2018-05-21T09:00:44.993Z,97841.27
2018-05-21T09:03:12.623Z,97842.58
2018-05-21T09:05:40.214Z,97836.30
2018-05-21T09:08:07.842Z,97838.52
2018-05-21T09:10:35.435Z,97836.58
2018-05-21T09:13:03.462Z,97828.22
2018-05-21T09:15:31.079Z,97828.30
2018-05-21T09:17:58.678Z,97823.69
2018-05-21T09:20:26.313Z,97820.11
2018-05-21T09:22:53.925Z,97819.98
2018-05-21T09:25:21.643Z,97813.10
2018-05-21T09:27:49.265Z,97814.61
2018-05-21T09:30:16.887Z,97812.54
2018-05-21T09:32:44.498Z,97812.81
2018-05-21T09:35:12.117Z,97806.97
2018-05-21T09:37:39.714Z,97803.55
2018-05-21T09:40:07.311Z,97806.02
2018-05-21T09:42:34.943Z,97803.53
2018-05-21T09:45:02.538Z,97811.13
2018-05-21T09:47:30.216Z,97801.71
2018-05-21T09:49:57.837Z,97806.30
2018-05-21T09:52:25.454Z,97795.38
2018-05-21T09:54:53.065Z,97809.88
2018-05-21T09:57:20.695Z,97797.74
2018-05-21T09:59:48.287Z,97791.20
2018-05-21T10:02:15.910Z,97790.97
2018-05-21T10:04:43.497Z,97787.92
2018-05-21T10:07:11.305Z,97777.95
2018-05-21T10:09:38.894Z,97773.91
2018-05-21T10:12:06.559Z,97778.55
2018-05-21T10:14:34.152Z,97776.61
2018-05-21T10:17:01.776Z,97775.08
2018-05-21T10:19:29.427Z,97767.76
2018-05-21T10:21:57.047Z,97763.20
2018-05-21T10:24:24.691Z,97771.98
2018-05-21T10:26:52.306Z,97772.53
2018-05-21T10:29:19.922Z,97772.24
2018-05-21T10:31:47.515Z,97763.20
2018-05-21T10:34:15.133Z,97770.08
2018-05-21T10:36:42.722Z,97766.38
2018-05-21T10:39:10.341Z,97764.08
2018-05-21T10:41:37.941Z,97760.57
2018-05-21T10:44:05.564Z,97760.00
2018-05-21T10:46:33.185Z,97758.23
2018-05-21T10:49:00.855Z,97752.09
2018-05-21T10:51:28.533Z,97754.10
2018-05-21T10:53:56.154Z,97753.06
2018-05-21T10:56:23.753Z,97737.57
2018-05-21T10:58:51.754Z,97744.47
2018-05-21T11:01:19.349Z,97739.91
2018-05-21T11:03:46.959Z,97735.22
2018-05-21T11:06:14.613Z,97733.88
2018-05-21T11:08:42.190Z,97720.70
2018-05-21T11:11:09.802Z,97724.82
2018-05-21T11:13:37.402Z,97717.55
2018-05-21T11:16:05.237Z,97709.67
2018-05-21T11:18:32.835Z,97713.25
2018-05-21T11:21:00.442Z,97716.03
2018-05-21T11:23:28.070Z,97720.96
2018-05-21T11:25:55.692Z,97715.43
2018-05-21T11:28:23.314Z,97713.84
2018-05-21T11:30:50.924Z,97713.05
2018-05-21T11:33:18.539Z,97709.91
2018-05-21T11:35:46.188Z,97707.70
2018-05-21T11:38:13.841Z,97699.67
2018-05-21T11:40:41.448Z,97693.72
2018-05-21T11:43:09.068Z,97692.65
2018-05-21T11:45:36.704Z,97694.94
2018-05-21T11:48:04.330Z,97690.38
2018-05-21T11:50:32.057Z,97690.96
2018-05-21T11:52:59.652Z,97689.39
2018-05-21T11:55:27.286Z,97691.77
2018-05-21T11:57:54.878Z,97689.22
2018-05-21T12:00:22.528Z,97689.69
2018-05-21T12:02:50.138Z,97688.70
2018-05-21T12:05:17.754Z,97683.88
2018-05-21T12:07:45.504Z,97689.81
2018-05-21T12:10:13.012Z,97685.55
2018-05-21T12:12:40.684Z,97681.89
2018-05-21T12:15:08.334Z,97681.25
2018-05-21T12:17:35.934Z,97686.63
2018-05-21T12:20:03.562Z,97673.02
2018-05-21T12:22:31.171Z,97676.77
2018-05-21T12:24:58.827Z,97680.48
2018-05-21T12:27:26.418Z,97677.73
2018-05-21T12:29:54.019Z,97666.53
2018-05-21T12:32:21.651Z,97666.84
2018-05-21T12:34:49.257Z,97672.70
2018-05-21T12:37:16.887Z,97668.66
2018-05-21T12:39:44.486Z,97671.80
2018-05-21T12:42:12.218Z,97672.52
2018-05-21T12:44:39.809Z,97673.55
2018-05-21T12:47:07.408Z,97671.48
2018-05-21T12:49:35.030Z,97672.75
2018-05-21T12:52:02.661Z,97667.11
2018-05-21T12:54:31.329Z,97672.09
2018-05-21T12:56:58.933Z,97669.81
2018-05-21T12:59:26.533Z,97665.13
2018-05-21T13:01:54.213Z,97666.27
2018-05-21T13:04:21.838Z,97658.63
2018-05-21T13:06:49.466Z,97656.16
2018-05-21T13:09:17.156Z,97647.21
2018-05-21T13:11:44.791Z,97645.94
2018-05-21T13:14:12.387Z,97638.39
2018-05-21T13:16:40.007Z,97645.79
2018-05-21T13:19:07.598Z,97647.42
2018-05-21T13:21:35.238Z,97639.26
2018-05-21T13:24:02.865Z,97635.38
2018-05-21T13:26:30.468Z,97631.30
2018-05-21T13:28:58.094Z,97637.80
2018-05-21T13:31:25.711Z,97632.00
2018-05-21T13:33:53.334Z,97633.56
2018-05-21T13:36:20.928Z,97626.41
2018-05-21T13:38:48.735Z,97630.34
2018-05-21T13:41:16.338Z,97629.20
2018-05-21T13:43:43.936Z,97624.25
2018-05-21T13:46:11.559Z,97616.06
2018-05-21T13:48:39.165Z,97613.59
2018-05-21T13:51:06.795Z,97613.58
2018-05-21T13:53:34.399Z,97615.34
2018-05-21T13:56:02.074Z,97611.31
2018-05-21T13:58:29.686Z,97604.26
2018-05-21T14:00:57.275Z,97600.86
2018-05-21T14:03:24.929Z,97594.36
2018-05-21T14:05:52.550Z,97597.39
2018-05-21T14:08:20.178Z,97593.88
2018-05-21T14:10:47.840Z,97589.03
2018-05-21T14:13:15.469Z,97588.03
2018-05-21T14:15:43.066Z,97583.73
2018-05-21T14:18:10.694Z,97588.12
2018-05-21T14:20:38.286Z,97578.38
2018-05-21T14:23:05.899Z,97578.98
2018-05-21T14:25:33.490Z,97577.39
2018-05-21T14:28:01.103Z,97576.53
2018-05-21T14:30:28.692Z,97572.20
2018-05-21T14:32:56.502Z,97560.61
2018-05-21T14:35:24.090Z,97571.11
2018-05-21T14:37:51.702Z,97558.61
2018-05-21T14:40:19.320Z,97555.80
2018-05-21T14:42:46.913Z,97555.16
2018-05-21T14:45:14.528Z,97549.66
2018-05-21T14:47:42.174Z,97554.00
2018-05-21T14:50:09.829Z,97546.16
2018-05-21T14:52:37.455Z,97544.59
2018-05-21T14:55:05.124Z,97541.16
2018-05-21T14:57:32.775Z,97541.52
2018-05-21T15:00:00.379Z,97527.20
2018-05-21T15:02:28.000Z,97527.09
2018-05-21T15:04:55.590Z,97522.52
2018-05-21T15:07:23.222Z,97519.41
2018-05-21T15:09:50.817Z,97518.63
2018-05-21T15:12:18.454Z,97519.99
2018-05-21T15:14:46.141Z,97519.78
2018-05-21T15:17:13.756Z,97510.87
2018-05-21T15:19:41.723Z,97516.30
2018-05-21T15:22:09.422Z,97506.09
2018-05-21T15:24:36.976Z,97511.76
2018-05-21T15:27:04.572Z,97507.45
2018-05-21T15:29:32.196Z,97511.20
2018-05-21T15:31:59.794Z,97503.22
2018-05-21T15:34:27.427Z,97504.48
2018-05-21T15:36:55.034Z,97503.69
2018-05-21T15:39:22.960Z,97494.23
2018-05-21T15:41:50.551Z,97492.87
2018-05-21T15:44:18.153Z,97489.72
2018-05-21T15:46:45.850Z,97493.56
2018-05-21T15:49:13.516Z,97491.31
2018-05-21T15:51:41.382Z,97491.47
2018-05-21T15:54:08.975Z,97486.13
2018-05-21T15:56:36.584Z,97489.33
2018-05-21T15:59:04.261Z,97493.66
2018-05-21T16:01:31.851Z,97490.73
2018-05-21T16:03:59.470Z,97486.17
2018-05-21T16:06:27.074Z,97482.73
2018-05-21T16:08:55.002Z,97488.44
2018-05-21T16:20:30.451Z,97489.70
2018-05-21T16:22:58.066Z,97491.12
2018-05-21T16:25:25.682Z,97484.48
2018-05-21T16:27:53.303Z,97483.98
2018-05-21T16:30:20.920Z,97486.50
2018-05-21T16:32:48.555Z,97489.38
2018-05-21T16:35:16.157Z,97493.81
2018-05-21T16:37:43.971Z,97489.08
2018-05-21T16:40:11.577Z,97486.97
2018-05-21T16:42:39.386Z,97493.16
2018-05-21T16:45:07.010Z,97503.00
2018-05-21T16:47:34.624Z,97499.75
2018-05-21T16:50:02.290Z,97520.76
2018-05-21T16:52:29.971Z,97543.81
2018-05-21T16:54:57.632Z,97542.28
2018-05-21T16:57:25.240Z,97549.05
2018-05-21T16:59:52.861Z,97555.13
2018-05-21T17:02:20.491Z,97569.58
2018-05-21T17:04:48.090Z,97570.56
2018-05-21T17:07:15.797Z,97569.16
2018-05-21T17:09:43.406Z,97565.23
2018-05-21T17:12:11.142Z,97567.42
2018-05-21T17:14:38.748Z,97562.32
2018-05-21T17:17:06.431Z,97557.16
2018-05-21T17:19:34.054Z,97554.45
2018-05-21T17:22:01.658Z,97559.53
2018-05-21T17:24:38.408Z,97561.13
2018-05-21T17:27:06.871Z,97565.89
2018-05-21T17:29:34.500Z,97568.41
2018-05-21T17:32:02.091Z,97572.44
2018-05-21T17:34:29.680Z,97574.45
2018-05-21T17:36:57.315Z,97574.08
2018-05-21T17:39:24.945Z,97571.81
2018-05-21T17:41:52.566Z,97571.34
2018-05-21T17:44:20.155Z,97579.47
2018-05-21T17:46:47.750Z,97582.12
2018-05-21T17:49:15.384Z,97586.78
2018-05-21T17:51:42.998Z,97581.88
2018-05-21T17:54:10.748Z,97579.78
2018-05-21T17:56:38.380Z,97588.12
2018-05-21T17:59:06.379Z,97587.49
2018-05-21T18:01:34.039Z,97588.91
2018-05-21T18:04:01.668Z,97585.56
2018-05-21T18:06:29.344Z,97578.45
2018-05-21T18:08:56.960Z,97579.08
2018-05-21T18:11:24.574Z,97577.74
2018-05-21T18:13:52.378Z,97580.11
2018-05-21T18:16:20.020Z,97584.85
2018-05-21T18:18:47.648Z,97585.98
2018-05-21T18:21:15.281Z,97577.39
2018-05-21T18:23:42.969Z,97577.33
2018-05-21T18:26:10.594Z,97574.24
2018-05-21T18:28:38.197Z,97567.71
2018-05-21T18:31:05.851Z,97566.65
2018-05-21T18:33:33.439Z,97566.22
2018-05-21T18:36:01.146Z,97567.70
2018-05-21T18:38:28.682Z,97558.17
2018-05-21T18:40:56.512Z,97563.69
2018-05-21T18:43:24.114Z,97562.87
2018-05-21T18:45:51.757Z,97559.16
2018-05-21T18:48:19.412Z,97553.69
2018-05-21T18:50:46.997Z,97560.20
2018-05-21T18:53:14.623Z,97552.29
2018-05-21T18:55:42.227Z,97565.23
2018-05-21T18:58:10.171Z,97560.58
2018-05-21T19:00:37.788Z,97568.98
2018-05-21T19:03:05.450Z,97568.66
2018-05-21T19:05:33.079Z,97567.27
2018-05-21T19:08:00.698Z,97567.73
2018-05-21T19:10:28.350Z,97574.81
2018-05-21T19:12:56.142Z,97563.98
2018-05-21T19:15:23.942Z,97561.15
2018-05-21T19:17:51.542Z,97564.06
2018-05-21T19:20:19.242Z,97565.95
2018-05-21T19:22:46.899Z,97567.00
2018-05-21T19:25:14.495Z,97568.41
2018-05-21T19:27:42.127Z,97569.30
2018-05-21T19:30:09.753Z,97571.63
2018-05-21T19:32:37.523Z,97574.14
2018-05-21T19:35:05.144Z,97579.70
2018-05-21T19:37:32.767Z,97579.13
2018-05-21T19:40:00.389Z,97582.61
2018-05-21T19:42:27.994Z,97578.19
2018-05-21T19:44:55.634Z,97579.81
2018-05-21T19:47:23.262Z,97579.34
2018-05-21T19:49:51.072Z,97584.11
2018-05-21T19:52:18.675Z,97586.09
2018-05-21T19:54:46.296Z,97583.64
2018-05-21T19:57:13.935Z,97590.39
2018-05-21T19:59:41.559Z,97589.17
2018-05-21T20:02:09.227Z,97590.63
2018-05-21T20:04:36.838Z,97586.76
2018-05-21T20:07:04.445Z,97588.95
2018-05-21T20:09:32.076Z,97577.18
2018-05-21T20:11:59.695Z,97577.77
2018-05-21T20:14:27.331Z,97578.39
2018-05-21T20:16:54.946Z,97576.23
2018-05-21T20:19:22.774Z,97571.55
2018-05-21T20:21:50.345Z,97576.21
2018-05-21T20:24:17.947Z,97579.76
2018-05-21T20:26:45.566Z,97576.99
2018-05-21T20:29:13.165Z,97576.48
2018-05-21T20:31:40.854Z,97571.87
2018-05-21T20:34:08.445Z,97570.78
2018-05-21T20:36:39.343Z,97566.28
2018-05-21T20:39:07.772Z,97569.84
2018-05-21T20:41:35.574Z,97572.63
2018-05-21T20:44:03.178Z,97569.47
2018-05-21T20:46:30.786Z,97570.16
2018-05-21T20:48:58.397Z,97564.95
2018-05-21T20:51:26.013Z,97565.28
2018-05-21T20:53:53.651Z,97561.64
2018-05-21T20:56:21.250Z,97571.16
2018-05-21T20:58:49.186Z,97580.00
2018-05-21T21:01:16.839Z,97582.67
2018-05-21T21:03:44.432Z,97584.41
2018-05-21T21:06:12.059Z,97578.39
2018-05-21T21:08:39.672Z,97578.53
2018-05-21T21:11:07.329Z,97581.59
2018-05-21T21:13:34.923Z,97586.39
2018-05-21T21:16:02.923Z,97587.45
2018-05-21T21:18:30.519Z,97585.56
2018-05-21T21:20:58.127Z,97589.12
2018-05-21T21:23:25.778Z,97588.25
2018-05-21T21:25:53.358Z,97584.78
2018-05-21T21:28:20.993Z,97583.77
2018-05-21T21:30:48.597Z,97588.81
2018-05-21T21:33:16.249Z,97585.41
2018-05-21T21:35:43.852Z,97583.35
2018-05-21T21:38:11.453Z,97583.75
2018-05-21T21:40:39.086Z,97584.48
2018-05-21T21:43:06.699Z,97584.48
2018-05-21T21:45:34.330Z,97583.57
2018-05-21T21:48:01.959Z,97588.86
2018-05-21T21:50:29.749Z,97582.95
2018-05-21T21:52:57.358Z,97587.16
2018-05-21T21:55:24.965Z,97591.11
2018-05-21T21:57:52.595Z,97584.84
2018-05-21T22:00:20.213Z,97593.41
2018-05-21T22:02:47.830Z,97594.59
2018-05-21T22:05:15.443Z,97589.84
2018-05-21T22:07:43.212Z,97584.95
2018-05-21T22:10:10.804Z,97588.69
2018-05-21T22:12:38.407Z,97592.95
2018-05-21T22:15:06.034Z,97596.23
2018-05-21T22:17:33.648Z,97593.91
2018-05-21T22:20:01.285Z,97582.77
2018-05-21T22:22:28.905Z,97590.48
2018-05-21T22:24:56.750Z,97594.62
2018-05-21T22:27:24.352Z,97589.92
2018-05-21T22:29:51.990Z,97594.05
2018-05-21T22:32:19.630Z,97591.11
2018-05-21T22:34:47.232Z,97589.53
2018-05-21T22:37:14.933Z,97586.19
2018-05-21T22:39:42.486Z,97585.57
2018-05-21T22:42:10.274Z,97587.72
2018-05-21T22:44:42.675Z,97580.92
2018-05-21T22:47:10.308Z,97582.63
2018-05-21T22:49:37.947Z,97575.61
2018-05-21T22:52:05.546Z,97575.70
2018-05-21T22:54:36.894Z,97577.76
2018-05-21T22:57:04.494Z,97575.38
2018-05-21T22:59:32.124Z,97575.66
2018-05-21T23:01:59.726Z,97571.30
2018-05-21T23:04:27.545Z,97573.22
2018-05-21T23:06:55.158Z,97567.95
2018-05-21T23:09:22.783Z,97568.13
2018-05-21T23:11:50.413Z,97568.56
2018-05-21T23:14:18.092Z,97563.16
2018-05-21T23:16:45.709Z,97559.64
2018-05-21T23:19:13.336Z,97560.20
2018-05-21T23:21:40.978Z,97567.27
2018-05-21T23:24:08.574Z,97566.66
2018-05-21T23:26:36.201Z,97563.82
2018-05-21T23:29:03.822Z,97562.06
2018-05-21T23:31:31.418Z,97563.25
2018-05-21T23:33:59.039Z,97553.73
2018-05-21T23:36:26.636Z,97555.27
2018-05-21T23:38:54.512Z,97557.43
2018-05-21T23:41:22.760Z,97560.41
2018-05-21T23:43:50.350Z,97554.14
2018-05-21T23:46:17.982Z,97554.40
2018-05-21T23:48:45.589Z,97551.85
2018-05-21T23:51:13.222Z,97544.89
2018-05-21T23:53:40.813Z,97557.36
2018-05-21T23:56:08.465Z,97556.88
2018-05-21T23:58:36.063Z,97557.22
